Time;durP1;ratioP1;P1;durP2;ratioP2;P2;SDS_P1;SDS_P2;PMS_P1;PMS_P2;Temp;Humidity;BMP_temperature;BMP_pressure;BME280_temperature;BME280_humidity;BME280_pressure;Samples;Min_cycle;Max_cycle;Signal;HPM_P1;HPM_P2
2022/02/19 00:00:09;;;;;;;12.13;2.10;;;;;;;;;;523922;28;1288;-79
2022/02/19 00:00:24;;;;;;;13.15;2.20;;;;;;;;;;524686;28;854;-78
2022/02/19 00:00:42;;;;;;;11.32;2.28;;;;;;;;;;521628;28;1011;-79
2022/02/19 00:00:58;;;;;;;9.82;2.08;;;;;;;;;;519479;28;1334;-78
2022/02/19 00:01:13;;;;;;;10.13;2.08;;;;;;;;;;521213;28;773;-78
2022/02/19 00:01:28;;;;;;;11.63;2.20;;;;;;;;;;520472;28;1349;-78
2022/02/19 00:01:44;;;;;;;10.45;2.15;;;;;;;;;;521580;28;1484;-77
2022/02/19 00:01:59;;;;;;;10.07;2.20;;;;;;;;;;521162;28;1251;-79
2022/02/19 00:02:14;;;;;;;12.60;2.17;;;;;;;;;;519741;28;1295;-79
2022/02/19 00:02:29;;;;;;;11.07;2.10;;;;;;;;;;520980;28;756;-79
2022/02/19 00:02:45;;;;;;;10.50;2.27;;;;;;;;;;520918;28;1289;-78
2022/02/19 00:03:00;;;;;;;11.77;2.33;;;;;;;;;;523238;28;1146;-79
2022/02/19 00:03:15;;;;;;;11.67;2.30;;;;;;;;;;523186;28;753;-79
2022/02/19 00:03:31;;;;;;;11.38;2.38;;;;;;;;;;523430;28;1175;-79
2022/02/19 00:03:46;;;;;;;11.48;2.50;;;;;;;;;;521583;28;1189;-79
2022/02/19 00:04:02;;;;;;;10.40;2.30;;;;;;;;;;520803;28;1274;-79
2022/02/19 00:04:18;;;;;;;10.50;2.30;;;;;;;;;;521395;28;710;-79
2022/02/19 00:04:33;;;;;;;10.93;2.50;;;;;;;;;;522011;28;740;-79
2022/02/19 00:04:49;;;;;;;10.87;2.37;;;;;;;;;;523674;28;1093;-79
2022/02/19 00:05:05;;;;;;;11.43;2.30;;;;;;;;;;523837;28;1404;-79
2022/02/19 00:05:21;;;;;;;11.23;2.38;;;;;;;;;;522784;28;1377;-78
2022/02/19 00:05:37;;;;;;;9.55;2.40;;;;;;;;;;524753;28;1085;-80
2022/02/19 00:05:52;;;;;;;10.60;2.40;;;;;;;;;;523816;28;804;-79
2022/02/19 00:06:08;;;;;;;12.60;2.50;;;;;;;;;;525384;28;820;-78
2022/02/19 00:06:23;;;;;;;11.48;2.53;;;;;;;;;;525267;28;1419;-79
2022/02/19 00:06:39;;;;;;;12.37;2.33;;;;;;;;;;524350;28;737;-78
2022/02/19 00:06:54;;;;;;;14.23;2.60;;;;;;;;;;523440;28;1352;-77
2022/02/19 00:07:09;;;;;;;13.27;2.70;;;;;;;;;;523894;28;661;-79
2022/02/19 00:07:25;;;;;;;12.63;2.43;;;;;;;;;;526818;28;693;-78
2022/02/19 00:07:40;;;;;;;11.60;2.35;;;;;;;;;;527919;28;759;-78
2022/02/19 00:07:56;;;;;;;11.10;2.40;;;;;;;;;;530018;27;1074;-78
2022/02/19 00:08:13;;;;;;;12.10;2.50;;;;;;;;;;529553;27;1490;-79
2022/02/19 00:08:28;;;;;;;12.73;2.55;;;;;;;;;;529734;27;1490;-78
2022/02/19 00:08:44;;;;;;;10.97;2.30;;;;;;;;;;530528;27;1435;-79
2022/02/19 00:09:00;;;;;;;10.65;2.20;;;;;;;;;;531886;27;775;-78
2022/02/19 00:09:15;;;;;;;11.13;2.17;;;;;;;;;;530042;27;1263;-79
2022/02/19 00:09:39;;;;;;;11.83;2.43;;;;;;;;;;527321;28;1324;-79
2022/02/19 00:09:55;;;;;;;12.05;2.38;;;;;;;;;;523731;28;1381;-78
2022/02/19 00:10:11;;;;;;;12.90;2.50;;;;;;;;;;523626;28;851;-80
2022/02/19 00:10:27;;;;;;;13.07;2.35;;;;;;;;;;525446;28;1509;-79
2022/02/19 00:10:43;;;;;;;12.43;2.47;;;;;;;;;;523961;28;1192;-80
2022/02/19 00:10:58;;;;;;;11.23;2.33;;;;;;;;;;523942;28;863;-79
2022/02/19 00:11:14;;;;;;;11.43;2.13;;;;;;;;;;525639;28;793;-78
2022/02/19 00:11:29;;;;;;;11.80;2.33;;;;;;;;;;527353;28;820;-79
2022/02/19 00:11:44;;;;;;;12.43;2.53;;;;;;;;;;527923;28;988;-79
2022/02/19 00:12:00;;;;;;;12.02;2.50;;;;;;;;;;528069;28;1407;-78
2022/02/19 00:12:15;;;;;;;10.73;2.33;;;;;;;;;;527062;28;1170;-78
2022/02/19 00:12:30;;;;;;;10.63;2.40;;;;;;;;;;530105;27;1498;-79
2022/02/19 00:12:45;;;;;;;10.68;2.33;;;;;;;;;;530337;27;885;-78
2022/02/19 00:13:01;;;;;;;10.40;2.33;;;;;;;;;;530597;27;791;-80
2022/02/19 00:13:16;;;;;;;11.93;2.50;;;;;;;;;;528127;28;1120;-79
2022/02/19 00:13:31;;;;;;;13.18;2.38;;;;;;;;;;525679;28;1393;-79
2022/02/19 00:13:47;;;;;;;12.47;2.40;;;;;;;;;;525575;28;1150;-79
2022/02/19 00:14:02;;;;;;;11.30;2.47;;;;;;;;;;525169;28;1977;-79
2022/02/19 00:14:17;;;;;;;12.80;2.53;;;;;;;;;;526091;28;996;-79
2022/02/19 00:14:33;;;;;;;13.37;2.40;;;;;;;;;;526091;28;736;-79
2022/02/19 00:14:48;;;;;;;10.73;2.17;;;;;;;;;;526115;28;847;-79
2022/02/19 00:15:05;;;;;;;10.48;2.20;;;;;;;;;;526115;28;1480;-80
2022/02/19 00:15:20;;;;;;;12.05;2.25;;;;;;;;;;530013;27;810;-79
2022/02/19 00:15:36;;;;;;;11.50;2.20;;;;;;;;;;528261;28;1188;-80
2022/02/19 00:15:52;;;;;;;11.88;2.30;;;;;;;;;;527501;28;898;-79
2022/02/19 00:16:08;;;;;;;12.23;2.70;;;;;;;;;;529801;27;952;-79
2022/02/19 00:16:23;;;;;;;11.10;2.50;;;;;;;;;;529813;27;910;-78
2022/02/19 00:16:38;;;;;;;11.15;2.17;;;;;;;;;;527938;28;1276;-80
2022/02/19 00:16:54;;;;;;;13.00;2.50;;;;;;;;;;528088;28;2767;-78
2022/02/19 00:17:09;;;;;;;12.83;2.60;;;;;;;;;;525916;28;1172;-79
2022/02/19 00:17:24;;;;;;;11.65;2.33;;;;;;;;;;524089;28;1279;-79
2022/02/19 00:17:40;;;;;;;12.80;2.23;;;;;;;;;;523504;28;1529;-78
2022/02/19 00:17:55;;;;;;;11.93;2.20;;;;;;;;;;523087;28;1196;-78
2022/02/19 00:18:11;;;;;;;11.57;2.10;;;;;;;;;;523775;28;820;-78
2022/02/19 00:18:26;;;;;;;12.18;2.08;;;;;;;;;;524035;28;768;-79
2022/02/19 00:18:41;;;;;;;12.77;2.47;;;;;;;;;;526190;28;791;-79
2022/02/19 00:18:57;;;;;;;12.10;2.63;;;;;;;;;;525667;28;866;-78
2022/02/19 00:19:12;;;;;;;10.98;2.33;;;;;;;;;;528015;28;1221;-78
2022/02/19 00:19:27;;;;;;;11.67;2.40;;;;;;;;;;528126;28;866;-78
2022/02/19 00:19:42;;;;;;;11.13;2.37;;;;;;;;;;528099;27;838;-78
2022/02/19 00:20:00;;;;;;;10.77;2.27;;;;;;;;;;529921;27;1477;-78
2022/02/19 00:20:16;;;;;;;10.60;2.28;;;;;;;;;;528532;27;803;-80
2022/02/19 00:20:32;;;;;;;9.45;2.20;;;;;;;;;;525906;28;752;-80
2022/02/19 00:20:47;;;;;;;10.73;2.20;;;;;;;;;;526021;28;834;-79
2022/02/19 00:21:03;;;;;;;11.57;2.27;;;;;;;;;;527094;28;799;-79
2022/02/19 00:21:19;;;;;;;10.70;2.17;;;;;;;;;;527824;28;1412;-78
2022/02/19 00:21:34;;;;;;;10.70;2.10;;;;;;;;;;528011;28;764;-80
2022/02/19 00:21:49;;;;;;;11.50;2.33;;;;;;;;;;525595;28;1206;-80
2022/02/19 00:22:05;;;;;;;12.05;2.45;;;;;;;;;;524580;28;815;-81
2022/02/19 00:22:21;;;;;;;11.32;2.30;;;;;;;;;;522238;28;1365;-80
2022/02/19 00:22:37;;;;;;;11.20;2.15;;;;;;;;;;523775;28;1232;-80
2022/02/19 00:22:52;;;;;;;11.90;2.23;;;;;;;;;;523734;28;1139;-80
2022/02/19 00:23:07;;;;;;;11.37;2.33;;;;;;;;;;524484;28;787;-79
2022/02/19 00:23:26;;;;;;;10.57;2.15;;;;;;;;;;523724;28;1155;-79
2022/02/19 00:23:42;;;;;;;10.18;1.90;;;;;;;;;;522696;28;1466;-79
2022/02/19 00:23:58;;;;;;;11.98;2.05;;;;;;;;;;523313;28;851;-78
2022/02/19 00:24:13;;;;;;;10.55;2.00;;;;;;;;;;523538;28;725;-79
2022/02/19 00:24:28;;;;;;;9.67;2.00;;;;;;;;;;523632;28;855;-79
2022/02/19 00:24:44;;;;;;;10.82;2.20;;;;;;;;;;522450;28;1308;-78
2022/02/19 00:24:59;;;;;;;9.57;2.07;;;;;;;;;;523968;28;1489;-80
2022/02/19 00:25:14;;;;;;;10.10;2.10;;;;;;;;;;525814;28;977;-80
2022/02/19 00:25:30;;;;;;;10.43;2.28;;;;;;;;;;524983;28;1221;-79
2022/02/19 00:25:45;;;;;;;9.13;2.00;;;;;;;;;;523693;28;831;-80
2022/02/19 00:26:00;;;;;;;9.37;1.97;;;;;;;;;;521742;28;1360;-80
2022/02/19 00:26:16;;;;;;;10.27;2.00;;;;;;;;;;523816;28;1024;-79
2022/02/19 00:26:31;;;;;;;10.23;2.10;;;;;;;;;;522166;28;1399;-79
2022/02/19 00:26:47;;;;;;;10.13;2.17;;;;;;;;;;524187;28;772;-79
2022/02/19 00:27:02;;;;;;;10.80;2.30;;;;;;;;;;525368;28;867;-79
2022/02/19 00:27:18;;;;;;;10.98;2.30;;;;;;;;;;523819;28;1321;-81
2022/02/19 00:27:34;;;;;;;9.63;2.10;;;;;;;;;;525830;28;907;-80
2022/02/19 00:27:49;;;;;;;9.07;2.07;;;;;;;;;;526173;28;926;-79
2022/02/19 00:28:04;;;;;;;9.17;2.00;;;;;;;;;;525432;28;1262;-78
2022/02/19 00:28:19;;;;;;;9.68;2.10;;;;;;;;;;525405;28;870;-79
2022/02/19 00:28:35;;;;;;;10.30;2.10;;;;;;;;;;525527;28;946;-79
2022/02/19 00:28:51;;;;;;;9.30;2.00;;;;;;;;;;525667;28;814;-79
2022/02/19 00:29:07;;;;;;;9.75;2.17;;;;;;;;;;525462;28;1323;-79
2022/02/19 00:29:22;;;;;;;11.88;2.25;;;;;;;;;;527765;28;819;-78
2022/02/19 00:29:37;;;;;;;12.53;2.30;;;;;;;;;;528497;27;1376;-78
2022/02/19 00:29:53;;;;;;;10.70;2.17;;;;;;;;;;527993;27;1427;-78
2022/02/19 00:30:08;;;;;;;9.90;2.05;;;;;;;;;;526448;28;1660;-78
2022/02/19 00:30:24;;;;;;;9.80;1.90;;;;;;;;;;524880;28;1127;-77
2022/02/19 00:30:39;;;;;;;10.38;1.90;;;;;;;;;;525924;28;886;-77
2022/02/19 00:30:56;;;;;;;9.30;2.00;;;;;;;;;;526436;28;930;-79
2022/02/19 00:31:11;;;;;;;10.52;2.00;;;;;;;;;;525937;28;867;-80
2022/02/19 00:31:26;;;;;;;11.13;2.03;;;;;;;;;;523594;28;1206;-80
2022/02/19 00:31:42;;;;;;;10.47;2.00;;;;;;;;;;524062;28;835;-80
2022/02/19 00:31:57;;;;;;;10.82;1.98;;;;;;;;;;522512;28;1152;-80
2022/02/19 00:32:12;;;;;;;10.50;2.00;;;;;;;;;;524931;28;927;-80
2022/02/19 00:32:28;;;;;;;10.77;2.13;;;;;;;;;;525472;28;755;-80
2022/02/19 00:32:43;;;;;;;10.65;2.22;;;;;;;;;;523681;28;1186;-80
2022/02/19 00:32:58;;;;;;;10.20;2.27;;;;;;;;;;523827;28;1143;-80
2022/02/19 00:33:13;;;;;;;9.33;2.13;;;;;;;;;;524157;28;785;-80
2022/02/19 00:33:29;;;;;;;8.88;1.90;;;;;;;;;;524258;28;768;-80
2022/02/19 00:33:44;;;;;;;9.77;2.10;;;;;;;;;;524250;28;1390;-79
2022/02/19 00:33:59;;;;;;;10.27;2.27;;;;;;;;;;523255;28;1942;-79
2022/02/19 00:34:15;;;;;;;11.57;2.20;;;;;;;;;;523826;28;1303;-80
2022/02/19 00:34:31;;;;;;;14.87;2.47;;;;;;;;;;523318;28;835;-80
2022/02/19 00:34:46;;;;;;;13.88;2.63;;;;;;;;;;523622;28;1289;-79
2022/02/19 00:35:02;;;;;;;11.07;2.30;;;;;;;;;;522400;28;1436;-80
2022/02/19 00:35:18;;;;;;;10.23;2.03;;;;;;;;;;523326;28;1314;-80
2022/02/19 00:35:34;;;;;;;10.80;2.08;;;;;;;;;;524121;28;1424;-80
2022/02/19 00:35:49;;;;;;;11.90;2.30;;;;;;;;;;526511;28;934;-81
2022/02/19 00:36:04;;;;;;;12.63;2.37;;;;;;;;;;528817;28;764;-80
2022/02/19 00:36:20;;;;;;;11.33;2.17;;;;;;;;;;527997;28;1206;-81
2022/02/19 00:36:35;;;;;;;10.85;2.22;;;;;;;;;;527465;28;724;-80
2022/02/19 00:36:51;;;;;;;10.40;2.17;;;;;;;;;;527833;28;753;-80
2022/02/19 00:37:06;;;;;;;11.97;2.10;;;;;;;;;;526644;28;1151;-80
2022/02/19 00:37:21;;;;;;;11.10;1.97;;;;;;;;;;525607;28;1250;-80
2022/02/19 00:37:37;;;;;;;10.45;2.00;;;;;;;;;;523872;28;823;-80
2022/02/19 00:37:52;;;;;;;10.97;2.13;;;;;;;;;;523791;28;982;-80
2022/02/19 00:38:08;;;;;;;11.02;1.98;;;;;;;;;;523684;28;791;-78
2022/02/19 00:38:23;;;;;;;9.87;1.90;;;;;;;;;;523463;28;902;-76
2022/02/19 00:38:38;;;;;;;10.55;2.25;;;;;;;;;;523467;28;701;-77
2022/02/19 00:38:54;;;;;;;11.90;2.33;;;;;;;;;;523589;28;1230;-77
2022/02/19 00:39:09;;;;;;;9.80;2.00;;;;;;;;;;525475;28;794;-78
2022/02/19 00:39:25;;;;;;;9.48;1.90;;;;;;;;;;527690;28;748;-78
2022/02/19 00:39:40;;;;;;;10.77;1.93;;;;;;;;;;527897;28;767;-79
2022/02/19 00:39:55;;;;;;;10.03;1.93;;;;;;;;;;527587;28;1499;-79
2022/02/19 00:40:11;;;;;;;9.95;1.90;;;;;;;;;;526268;28;1497;-80
2022/02/19 00:40:26;;;;;;;9.52;2.00;;;;;;;;;;526228;28;705;-79
2022/02/19 00:40:46;;;;;;;8.03;1.93;;;;;;;;;;527431;28;1261;-78
2022/02/19 00:41:01;;;;;;;8.85;1.90;;;;;;;;;;525820;28;1013;-78
2022/02/19 00:41:18;;;;;;;7.60;1.70;;;;;;;;;;526138;28;1242;-79
2022/02/19 00:41:33;;;;;;;7.30;1.65;;;;;;;;;;523963;28;1257;-79
2022/02/19 00:41:49;;;;;;;9.45;1.90;;;;;;;;;;523526;28;1062;-80
2022/02/19 00:42:05;;;;;;;10.13;1.80;;;;;;;;;;520869;28;1362;-80
2022/02/19 00:42:21;;;;;;;8.68;1.80;;;;;;;;;;518936;28;1051;-80
2022/02/19 00:42:36;;;;;;;9.27;1.90;;;;;;;;;;523688;28;930;-79
2022/02/19 00:42:52;;;;;;;10.30;2.00;;;;;;;;;;523725;28;1171;-79
2022/02/19 00:43:07;;;;;;;8.85;1.80;;;;;;;;;;526423;28;984;-79
2022/02/19 00:43:22;;;;;;;8.80;1.80;;;;;;;;;;528653;28;890;-79
2022/02/19 00:43:38;;;;;;;9.47;2.03;;;;;;;;;;530153;27;602;-79
2022/02/19 00:43:53;;;;;;;10.73;2.10;;;;;;;;;;530550;27;1004;-79
2022/02/19 00:44:08;;;;;;;12.00;2.00;;;;;;;;;;532143;27;799;-79
2022/02/19 00:44:24;;;;;;;9.50;1.97;;;;;;;;;;528481;28;1114;-77
2022/02/19 00:44:40;;;;;;;10.20;2.10;;;;;;;;;;527682;28;767;-79
2022/02/19 00:44:55;;;;;;;12.48;2.10;;;;;;;;;;527300;28;1482;-79
2022/02/19 00:45:10;;;;;;;10.30;1.80;;;;;;;;;;528649;27;902;-80
2022/02/19 00:45:26;;;;;;;7.97;1.80;;;;;;;;;;530016;27;1042;-79
2022/02/19 00:45:41;;;;;;;9.02;2.05;;;;;;;;;;530040;27;901;-79
2022/02/19 00:45:57;;;;;;;9.70;2.03;;;;;;;;;;527561;28;1111;-78
2022/02/19 00:46:12;;;;;;;9.55;1.92;;;;;;;;;;528283;28;800;-79
2022/02/19 00:46:28;;;;;;;9.70;2.00;;;;;;;;;;530060;27;810;-78
2022/02/19 00:46:43;;;;;;;7.73;1.87;;;;;;;;;;530187;27;844;-78
2022/02/19 00:46:59;;;;;;;8.23;1.80;;;;;;;;;;529443;27;929;-79
2022/02/19 00:47:14;;;;;;;8.73;1.80;;;;;;;;;;527693;28;823;-79
2022/02/19 00:47:30;;;;;;;9.43;1.90;;;;;;;;;;528046;28;859;-79
2022/02/19 00:47:45;;;;;;;10.23;1.97;;;;;;;;;;526278;28;1259;-78
2022/02/19 00:48:01;;;;;;;10.52;2.03;;;;;;;;;;525745;28;1321;-79
2022/02/19 00:48:16;;;;;;;10.80;1.93;;;;;;;;;;525610;28;1216;-79
2022/02/19 00:48:32;;;;;;;10.33;1.90;;;;;;;;;;525832;28;930;-79
2022/02/19 00:48:47;;;;;;;9.73;1.90;;;;;;;;;;527297;28;1115;-79
2022/02/19 00:49:03;;;;;;;8.90;1.80;;;;;;;;;;524696;28;836;-80
2022/02/19 00:49:18;;;;;;;8.65;1.85;;;;;;;;;;525792;28;606;-79
2022/02/19 00:49:34;;;;;;;8.65;1.90;;;;;;;;;;525755;28;1198;-79
2022/02/19 00:49:49;;;;;;;9.13;1.90;;;;;;;;;;523914;28;1279;-80
2022/02/19 00:50:05;;;;;;;9.80;1.90;;;;;;;;;;524940;28;1475;-78
2022/02/19 00:50:21;;;;;;;9.23;1.90;;;;;;;;;;526003;28;1310;-79
2022/02/19 00:50:37;;;;;;;8.40;1.70;;;;;;;;;;527702;28;874;-79
2022/02/19 00:50:52;;;;;;;8.67;1.77;;;;;;;;;;527990;28;821;-79
2022/02/19 00:51:07;;;;;;;10.07;1.93;;;;;;;;;;525879;28;915;-79
2022/02/19 00:51:23;;;;;;;13.10;2.25;;;;;;;;;;522051;28;1284;-79
2022/02/19 00:51:38;;;;;;;12.40;2.27;;;;;;;;;;524330;28;796;-78
2022/02/19 00:51:54;;;;;;;9.57;2.07;;;;;;;;;;523927;28;1223;-78
2022/02/19 00:52:09;;;;;;;9.02;2.00;;;;;;;;;;525062;28;776;-79
2022/02/19 00:52:24;;;;;;;9.40;1.97;;;;;;;;;;525712;28;734;-79
2022/02/19 00:52:40;;;;;;;9.10;1.83;;;;;;;;;;525554;28;1274;-78
2022/02/19 00:52:55;;;;;;;8.60;1.93;;;;;;;;;;525686;28;772;-79
2022/02/19 00:53:10;;;;;;;8.33;1.87;;;;;;;;;;525630;28;1175;-79
2022/02/19 00:53:25;;;;;;;10.15;1.77;;;;;;;;;;527710;28;854;-79
2022/02/19 00:53:41;;;;;;;11.37;1.90;;;;;;;;;;528113;28;918;-79
2022/02/19 00:53:57;;;;;;;9.70;1.90;;;;;;;;;;529238;27;1960;-78
2022/02/19 00:54:12;;;;;;;9.77;1.95;;;;;;;;;;529866;27;958;-78
2022/02/19 00:54:27;;;;;;;8.70;1.88;;;;;;;;;;528292;27;1318;-78
2022/02/19 00:54:43;;;;;;;9.10;1.93;;;;;;;;;;529981;27;847;-79
2022/02/19 00:54:58;;;;;;;11.67;2.23;;;;;;;;;;528986;27;1576;-78
2022/02/19 00:55:14;;;;;;;12.80;2.30;;;;;;;;;;526465;28;1517;-79
2022/02/19 00:55:29;;;;;;;11.77;2.20;;;;;;;;;;526478;28;1201;-79
2022/02/19 00:55:44;;;;;;;10.33;2.00;;;;;;;;;;525386;28;1367;-79
2022/02/19 00:56:00;;;;;;;10.47;2.00;;;;;;;;;;525043;28;1235;-79
2022/02/19 00:56:15;;;;;;;9.47;1.87;;;;;;;;;;523124;28;943;-78
2022/02/19 00:56:30;;;;;;;9.52;2.00;;;;;;;;;;523673;28;1297;-79
2022/02/19 00:56:46;;;;;;;11.50;2.20;;;;;;;;;;521668;28;1131;-79
2022/02/19 00:57:01;;;;;;;10.80;2.20;;;;;;;;;;521707;28;1286;-79
2022/02/19 00:57:16;;;;;;;9.18;1.98;;;;;;;;;;523479;28;1141;-79
2022/02/19 00:57:32;;;;;;;10.07;2.00;;;;;;;;;;523636;28;1158;-79
2022/02/19 00:57:47;;;;;;;11.37;2.10;;;;;;;;;;523800;28;923;-79
2022/02/19 00:58:02;;;;;;;11.00;2.10;;;;;;;;;;521406;28;1190;-79
2022/02/19 00:58:18;;;;;;;10.60;2.00;;;;;;;;;;519809;28;1243;-79
2022/02/19 00:58:33;;;;;;;12.20;2.22;;;;;;;;;;519538;28;1068;-79
2022/02/19 00:58:48;;;;;;;11.67;2.20;;;;;;;;;;521727;28;856;-79
2022/02/19 00:59:04;;;;;;;11.47;2.20;;;;;;;;;;523139;28;784;-79
2022/02/19 00:59:19;;;;;;;11.07;2.20;;;;;;;;;;523392;28;816;-79
2022/02/19 00:59:34;;;;;;;11.00;2.17;;;;;;;;;;525496;28;674;-79
2022/02/19 00:59:50;;;;;;;11.37;2.13;;;;;;;;;;526032;28;801;-79
2022/02/19 01:00:07;;;;;;;10.30;2.17;;;;;;;;;;526851;28;1403;-79
2022/02/19 01:00:22;;;;;;;10.70;2.35;;;;;;;;;;526879;28;1219;-79
2022/02/19 01:00:38;;;;;;;10.03;2.23;;;;;;;;;;528506;27;1093;-79
2022/02/19 01:00:53;;;;;;;9.38;2.00;;;;;;;;;;527872;28;1400;-79
2022/02/19 01:01:08;;;;;;;9.47;1.93;;;;;;;;;;527748;28;898;-79
2022/02/19 01:01:24;;;;;;;9.50;2.07;;;;;;;;;;525443;28;1183;-79
2022/02/19 01:01:39;;;;;;;9.05;2.00;;;;;;;;;;525188;28;1113;-78
2022/02/19 01:01:55;;;;;;;8.50;1.97;;;;;;;;;;525667;28;1294;-79
2022/02/19 01:02:10;;;;;;;8.98;2.15;;;;;;;;;;525779;28;1209;-79
2022/02/19 01:02:26;;;;;;;11.67;2.40;;;;;;;;;;525769;28;1250;-79
2022/02/19 01:02:42;;;;;;;13.55;2.30;;;;;;;;;;526335;28;906;-79
2022/02/19 01:02:57;;;;;;;12.07;2.03;;;;;;;;;;527999;28;796;-78
2022/02/19 01:03:12;;;;;;;11.03;2.13;;;;;;;;;;527883;28;847;-79
2022/02/19 01:03:29;;;;;;;11.48;2.40;;;;;;;;;;525534;28;1293;-79
2022/02/19 01:03:44;;;;;;;11.43;2.28;;;;;;;;;;525266;28;1256;-79
2022/02/19 01:04:00;;;;;;;13.10;2.03;;;;;;;;;;526010;28;922;-79
2022/02/19 01:04:15;;;;;;;13.00;2.20;;;;;;;;;;528419;28;759;-78
2022/02/19 01:04:31;;;;;;;11.77;2.25;;;;;;;;;;529902;27;1209;-79
2022/02/19 01:04:46;;;;;;;11.40;2.00;;;;;;;;;;529842;27;894;-79
2022/02/19 01:05:01;;;;;;;11.93;2.23;;;;;;;;;;528967;28;1510;-80
2022/02/19 01:05:17;;;;;;;11.65;2.30;;;;;;;;;;528769;28;993;-79
2022/02/19 01:05:32;;;;;;;10.53;2.13;;;;;;;;;;526720;28;1140;-79
2022/02/19 01:05:48;;;;;;;10.95;2.10;;;;;;;;;;525372;28;662;-78
2022/02/19 01:06:03;;;;;;;10.90;2.33;;;;;;;;;;526659;28;946;-79
2022/02/19 01:06:19;;;;;;;10.25;2.38;;;;;;;;;;527883;28;743;-79
2022/02/19 01:06:35;;;;;;;9.10;2.20;;;;;;;;;;529862;28;910;-79
2022/02/19 01:06:50;;;;;;;9.53;2.20;;;;;;;;;;527553;28;1178;-79
2022/02/19 01:07:05;;;;;;;10.80;2.30;;;;;;;;;;527709;28;1154;-79
2022/02/19 01:07:23;;;;;;;12.23;2.30;;;;;;;;;;527873;28;1291;-79
2022/02/19 01:07:38;;;;;;;11.65;2.28;;;;;;;;;;525917;28;1274;-79
2022/02/19 01:07:54;;;;;;;10.80;2.03;;;;;;;;;;525500;28;696;-78
2022/02/19 01:08:09;;;;;;;11.98;2.10;;;;;;;;;;526035;28;786;-79
2022/02/19 01:08:25;;;;;;;11.13;2.20;;;;;;;;;;525071;28;1408;-79
2022/02/19 01:08:40;;;;;;;10.43;2.20;;;;;;;;;;525966;28;1401;-78
2022/02/19 01:08:55;;;;;;;10.73;2.13;;;;;;;;;;527520;28;1471;-78
2022/02/19 01:09:11;;;;;;;10.33;2.10;;;;;;;;;;528225;28;815;-78
2022/02/19 01:09:26;;;;;;;11.60;2.20;;;;;;;;;;530303;27;751;-79
2022/02/19 01:09:42;;;;;;;11.18;2.10;;;;;;;;;;532392;27;686;-78
2022/02/19 01:09:57;;;;;;;12.00;2.30;;;;;;;;;;528239;28;1505;-78
2022/02/19 01:10:12;;;;;;;12.40;2.55;;;;;;;;;;528735;28;996;-78
2022/02/19 01:10:28;;;;;;;10.60;2.37;;;;;;;;;;529870;27;859;-78
2022/02/19 01:10:43;;;;;;;11.20;2.13;;;;;;;;;;527743;28;1269;-79
2022/02/19 01:10:58;;;;;;;11.13;2.03;;;;;;;;;;527834;28;986;-78
2022/02/19 01:11:14;;;;;;;10.50;1.90;;;;;;;;;;526030;28;1086;-78
2022/02/19 01:11:29;;;;;;;9.57;1.80;;;;;;;;;;526044;28;835;-78
2022/02/19 01:11:44;;;;;;;10.53;2.07;;;;;;;;;;526241;28;721;-78
2022/02/19 01:12:00;;;;;;;11.40;2.40;;;;;;;;;;527539;28;1254;-78
2022/02/19 01:12:15;;;;;;;11.07;2.55;;;;;;;;;;527875;28;1295;-79
2022/02/19 01:12:30;;;;;;;11.07;2.50;;;;;;;;;;528130;28;922;-79
2022/02/19 01:12:46;;;;;;;12.23;2.50;;;;;;;;;;525710;28;1255;-79
2022/02/19 01:13:01;;;;;;;12.30;2.33;;;;;;;;;;526159;28;968;-80
2022/02/19 01:13:17;;;;;;;11.03;2.00;;;;;;;;;;526180;28;788;-80
2022/02/19 01:13:32;;;;;;;9.82;2.00;;;;;;;;;;527165;28;1243;-79
2022/02/19 01:13:48;;;;;;;8.80;2.00;;;;;;;;;;527307;28;1372;-78
2022/02/19 01:14:03;;;;;;;8.98;2.00;;;;;;;;;;527076;28;1914;-79
2022/02/19 01:14:18;;;;;;;9.83;2.00;;;;;;;;;;525563;28;1241;-79
2022/02/19 01:14:34;;;;;;;10.82;2.00;;;;;;;;;;523187;28;1051;-80
2022/02/19 01:14:49;;;;;;;10.53;1.90;;;;;;;;;;527154;28;1020;-79
2022/02/19 01:15:09;;;;;;;9.70;2.08;;;;;;;;;;526743;28;1577;-79
2022/02/19 01:15:25;;;;;;;9.80;2.20;;;;;;;;;;527322;28;883;-78
2022/02/19 01:15:42;;;;;;;10.07;2.03;;;;;;;;;;527937;28;693;-80
2022/02/19 01:15:58;;;;;;;10.13;2.08;;;;;;;;;;525557;28;1217;-78
2022/02/19 01:16:14;;;;;;;10.20;2.28;;;;;;;;;;523000;28;1195;-78
2022/02/19 01:16:29;;;;;;;9.60;2.20;;;;;;;;;;523708;28;970;-79
2022/02/19 01:16:44;;;;;;;9.25;2.05;;;;;;;;;;526541;28;1113;-78
2022/02/19 01:17:00;;;;;;;10.27;2.20;;;;;;;;;;529389;28;799;-78
2022/02/19 01:17:15;;;;;;;9.83;1.90;;;;;;;;;;528024;28;835;-79
2022/02/19 01:17:31;;;;;;;9.45;1.85;;;;;;;;;;525798;28;1352;-79
2022/02/19 01:17:47;;;;;;;10.07;1.97;;;;;;;;;;526328;28;1161;-79
2022/02/19 01:18:02;;;;;;;10.10;1.90;;;;;;;;;;525085;28;1251;-78
2022/02/19 01:18:17;;;;;;;8.68;2.03;;;;;;;;;;527105;28;1178;-78
2022/02/19 01:18:33;;;;;;;8.70;2.20;;;;;;;;;;527666;28;808;-79
2022/02/19 01:18:49;;;;;;;8.20;1.93;;;;;;;;;;528020;28;1206;-79
2022/02/19 01:19:05;;;;;;;9.20;1.85;;;;;;;;;;527703;28;850;-80
2022/02/19 01:19:20;;;;;;;9.57;2.00;;;;;;;;;;528280;28;1253;-80
2022/02/19 01:19:36;;;;;;;10.00;1.92;;;;;;;;;;529626;28;996;-79
2022/02/19 01:19:51;;;;;;;12.20;2.20;;;;;;;;;;527687;28;1182;-79
2022/02/19 01:20:08;;;;;;;11.63;2.10;;;;;;;;;;526947;28;1383;-79
2022/02/19 01:20:24;;;;;;;10.43;1.90;;;;;;;;;;525298;28;1249;-78
2022/02/19 01:20:42;;;;;;;11.50;2.10;;;;;;;;;;525943;28;1459;-78
2022/02/19 01:20:57;;;;;;;9.68;1.90;;;;;;;;;;525727;28;882;-78
2022/02/19 01:21:16;;;;;;;8.30;1.73;;;;;;;;;;523997;28;1119;-78
2022/02/19 01:21:32;;;;;;;9.45;2.08;;;;;;;;;;524120;28;808;-79
2022/02/19 01:21:47;;;;;;;9.77;2.17;;;;;;;;;;523933;28;752;-79
2022/02/19 01:22:05;;;;;;;9.25;1.98;;;;;;;;;;523568;28;847;-79
2022/02/19 01:22:21;;;;;;;8.02;2.03;;;;;;;;;;522952;28;1300;-80
2022/02/19 01:22:38;;;;;;;7.47;1.83;;;;;;;;;;525129;28;922;-79
2022/02/19 01:22:54;;;;;;;8.65;1.90;;;;;;;;;;523648;28;1234;-78
2022/02/19 01:23:09;;;;;;;9.25;1.88;;;;;;;;;;525080;28;1224;-80
2022/02/19 01:23:25;;;;;;;8.90;1.80;;;;;;;;;;525649;28;1068;-78
2022/02/19 01:23:40;;;;;;;9.02;1.80;;;;;;;;;;525909;28;709;-79
2022/02/19 01:23:55;;;;;;;9.00;1.80;;;;;;;;;;525175;28;1141;-80
2022/02/19 01:24:11;;;;;;;9.50;2.00;;;;;;;;;;525799;28;937;-80
2022/02/19 01:24:26;;;;;;;9.33;2.03;;;;;;;;;;525274;28;1136;-80
2022/02/19 01:24:42;;;;;;;8.70;1.90;;;;;;;;;;525976;28;728;-79
2022/02/19 01:24:57;;;;;;;9.70;2.00;;;;;;;;;;526272;28;1464;-80
2022/02/19 01:25:13;;;;;;;9.50;1.80;;;;;;;;;;529341;28;878;-80
2022/02/19 01:25:29;;;;;;;9.20;1.83;;;;;;;;;;530088;28;1226;-79
2022/02/19 01:25:44;;;;;;;11.15;2.03;;;;;;;;;;527346;28;934;-80
2022/02/19 01:25:59;;;;;;;10.00;1.70;;;;;;;;;;526250;28;690;-79
2022/02/19 01:26:15;;;;;;;8.40;1.47;;;;;;;;;;525574;28;1488;-78
2022/02/19 01:26:31;;;;;;;8.55;1.60;;;;;;;;;;527357;28;724;-79
2022/02/19 01:26:46;;;;;;;8.30;1.80;;;;;;;;;;526014;28;1339;-79
2022/02/19 01:27:02;;;;;;;7.37;1.70;;;;;;;;;;523423;28;1158;-79
2022/02/19 01:27:17;;;;;;;9.27;1.80;;;;;;;;;;523908;28;796;-79
2022/02/19 01:27:32;;;;;;;12.23;1.90;;;;;;;;;;525828;28;1227;-79
2022/02/19 01:27:48;;;;;;;11.57;1.88;;;;;;;;;;526006;28;887;-79
2022/02/19 01:28:04;;;;;;;9.90;1.93;;;;;;;;;;525821;28;1217;-79
2022/02/19 01:28:19;;;;;;;9.85;2.00;;;;;;;;;;526182;28;915;-80
2022/02/19 01:28:34;;;;;;;11.23;2.08;;;;;;;;;;525414;28;1098;-79
2022/02/19 01:28:50;;;;;;;10.03;1.93;;;;;;;;;;525901;28;895;-79
2022/02/19 01:29:06;;;;;;;8.83;1.70;;;;;;;;;;527000;28;1640;-79
2022/02/19 01:29:21;;;;;;;7.25;1.52;;;;;;;;;;528452;28;918;-79
2022/02/19 01:29:37;;;;;;;8.47;1.83;;;;;;;;;;529907;28;1123;-80
2022/02/19 01:29:53;;;;;;;9.90;2.10;;;;;;;;;;529689;28;1552;-79
2022/02/19 01:30:09;;;;;;;9.13;1.98;;;;;;;;;;529126;28;952;-80
2022/02/19 01:30:24;;;;;;;10.03;2.00;;;;;;;;;;526804;28;2875;-79
2022/02/19 01:30:39;;;;;;;10.50;2.00;;;;;;;;;;525152;28;1304;-79
2022/02/19 01:30:55;;;;;;;10.60;2.00;;;;;;;;;;525855;28;789;-79
2022/02/19 01:31:10;;;;;;;11.67;2.10;;;;;;;;;;523676;28;1326;-79
2022/02/19 01:31:25;;;;;;;11.80;2.10;;;;;;;;;;523667;28;780;-79
2022/02/19 01:31:41;;;;;;;10.80;1.90;;;;;;;;;;524285;28;1143;-79
2022/02/19 01:31:56;;;;;;;10.57;1.80;;;;;;;;;;524456;28;1447;-79
2022/02/19 01:32:11;;;;;;;10.13;2.00;;;;;;;;;;523933;28;1450;-79
2022/02/19 01:32:27;;;;;;;9.87;2.00;;;;;;;;;;527910;28;1393;-79
2022/02/19 01:32:42;;;;;;;9.98;1.80;;;;;;;;;;527793;28;1108;-79
2022/02/19 01:32:58;;;;;;;8.83;1.80;;;;;;;;;;527799;28;767;-79
2022/02/19 01:33:13;;;;;;;8.00;1.67;;;;;;;;;;529860;28;732;-79
2022/02/19 01:33:28;;;;;;;7.68;1.73;;;;;;;;;;530044;28;851;-79
2022/02/19 01:33:44;;;;;;;9.60;1.90;;;;;;;;;;530154;28;966;-79
2022/02/19 01:33:59;;;;;;;11.23;1.97;;;;;;;;;;529515;28;1984;-79
2022/02/19 01:34:15;;;;;;;11.02;1.77;;;;;;;;;;530103;28;674;-78
2022/02/19 01:34:30;;;;;;;10.30;1.80;;;;;;;;;;529783;28;796;-79
2022/02/19 01:34:45;;;;;;;9.67;1.90;;;;;;;;;;529748;28;799;-79
2022/02/19 01:35:01;;;;;;;9.97;1.77;;;;;;;;;;528557;28;1514;-79
2022/02/19 01:35:16;;;;;;;9.48;1.80;;;;;;;;;;528812;28;826;-79
2022/02/19 01:35:32;;;;;;;7.80;1.70;;;;;;;;;;528626;28;858;-79
2022/02/19 01:35:47;;;;;;;7.87;1.70;;;;;;;;;;525282;28;1270;-79
2022/02/19 01:36:02;;;;;;;7.00;1.70;;;;;;;;;;524595;28;1255;-79